sensor_id;sensor_type;location;lat;lon;timestamp;pressure;altitude;pressure_sealevel;temperature
65316;BMP280;51920;53.952;10.292;2023-02-28T00:01:22;102722.78;;;3.57
65316;BMP280;51920;53.952;10.292;2023-02-28T00:03:47;102723.88;;;3.56
65316;BMP280;51920;53.952;10.292;2023-02-28T00:06:13;102728.25;;;3.52
65316;BMP280;51920;53.952;10.292;2023-02-28T00:08:39;102726.84;;;3.54
65316;BMP280;51920;53.952;10.292;2023-02-28T00:11:07;102725.22;;;3.53
65316;BMP280;51920;53.952;10.292;2023-02-28T00:13:38;102715.63;;;3.52
65316;BMP280;51920;53.952;10.292;2023-02-28T00:16:10;102714.28;;;3.50
65316;BMP280;51920;53.952;10.292;2023-02-28T00:18:36;102721.25;;;3.51
65316;BMP280;51920;53.952;10.292;2023-02-28T00:21:02;102723.41;;;3.48
65316;BMP280;51920;53.952;10.292;2023-02-28T00:23:27;102714.84;;;3.46
65316;BMP280;51920;53.952;10.292;2023-02-28T00:25:54;102709.75;;;3.45
65316;BMP280;51920;53.952;10.292;2023-02-28T00:28:20;102707.63;;;3.42
65316;BMP280;51920;53.952;10.292;2023-02-28T00:30:45;102713.50;;;3.44
65316;BMP280;51920;53.952;10.292;2023-02-28T00:33:11;102717.56;;;3.41
65316;BMP280;51920;53.952;10.292;2023-02-28T00:35:37;102716.19;;;3.39
65316;BMP280;51920;53.952;10.292;2023-02-28T00:38:03;102712.22;;;3.36
65316;BMP280;51920;53.952;10.292;2023-02-28T00:40:29;102716.19;;;3.39
65316;BMP280;51920;53.952;10.292;2023-02-28T00:42:54;102711.13;;;3.37
65316;BMP280;51920;53.952;10.292;2023-02-28T00:45:20;102709.78;;;3.35
65316;BMP280;51920;53.952;10.292;2023-02-28T00:47:45;102714.09;;;3.36
65316;BMP280;51920;53.952;10.292;2023-02-28T00:50:16;102717.84;;;3.35
65316;BMP280;51920;53.952;10.292;2023-02-28T00:52:42;102725.34;;;3.33
65316;BMP280;51920;53.952;10.292;2023-02-28T00:55:07;102721.88;;;3.32
65316;BMP280;51920;53.952;10.292;2023-02-28T00:57:33;102729.09;;;3.32
65316;BMP280;51920;53.952;10.292;2023-02-28T00:59:58;102718.94;;;3.28
65316;BMP280;51920;53.952;10.292;2023-02-28T01:02:24;102724.56;;;3.32
65316;BMP280;51920;53.952;10.292;2023-02-28T01:04:51;102722.69;;;3.27
65316;BMP280;51920;53.952;10.292;2023-02-28T01:07:17;102720.56;;;3.24
65316;BMP280;51920;53.952;10.292;2023-02-28T01:09:42;102725.34;;;3.27
65316;BMP280;51920;53.952;10.292;2023-02-28T01:12:08;102728.81;;;3.28
65316;BMP280;51920;53.952;10.292;2023-02-28T01:14:34;102725.94;;;3.24
65316;BMP280;51920;53.952;10.292;2023-02-28T01:17:00;102724.34;;;3.23
65316;BMP280;51920;53.952;10.292;2023-02-28T01:19:26;102724.09;;;3.20
65316;BMP280;51920;53.952;10.292;2023-02-28T01:21:51;102720.59;;;3.19
65316;BMP280;51920;53.952;10.292;2023-02-28T01:24:17;102721.16;;;3.16
65316;BMP280;51920;53.952;10.292;2023-02-28T01:26:43;102728.63;;;3.14
65316;BMP280;51920;53.952;10.292;2023-02-28T01:29:09;102728.38;;;3.11
65316;BMP280;51920;53.952;10.292;2023-02-28T01:31:34;102725.69;;;3.11
65316;BMP280;51920;53.952;10.292;2023-02-28T01:34:00;102722.75;;;3.07
65316;BMP280;51920;53.952;10.292;2023-02-28T01:36:29;102725.69;;;3.05
65316;BMP280;51920;53.952;10.292;2023-02-28T01:38:55;102696.59;;;2.94
65316;BMP280;51920;53.952;10.292;2023-02-28T01:41:23;102706.75;;;2.92
65316;BMP280;51920;53.952;10.292;2023-02-28T01:46:15;102711.28;;;2.96
65316;BMP280;51920;53.952;10.292;2023-02-28T01:48:53;102722.00;;;2.91
65316;BMP280;51920;53.952;10.292;2023-02-28T01:53:54;102714.78;;;2.92
65316;BMP280;51920;53.952;10.292;2023-02-28T01:56:24;102701.94;;;2.83
65316;BMP280;51920;53.952;10.292;2023-02-28T01:58:52;102706.25;;;2.84
65316;BMP280;51920;53.952;10.292;2023-02-28T02:01:20;102702.75;;;2.84
65316;BMP280;51920;53.952;10.292;2023-02-28T02:03:55;102699.53;;;2.82
65316;BMP280;51920;53.952;10.292;2023-02-28T02:06:26;102698.22;;;2.84
65316;BMP280;51920;53.952;10.292;2023-02-28T02:08:53;102704.09;;;2.81
65316;BMP280;51920;53.952;10.292;2023-02-28T02:11:20;102704.88;;;2.82
65316;BMP280;51920;53.952;10.292;2023-02-28T02:19:43;102705.41;;;2.79
65316;BMP280;51920;53.952;10.292;2023-02-28T02:22:37;102706.25;;;2.79
65316;BMP280;51920;53.952;10.292;2023-02-28T02:28:17;102702.22;;;2.72
65316;BMP280;51920;53.952;10.292;2023-02-28T02:36:05;102687.00;;;2.67
65316;BMP280;51920;53.952;10.292;2023-02-28T02:38:45;102693.44;;;2.66
65316;BMP280;51920;53.952;10.292;2023-02-28T02:41:19;102695.03;;;2.67
65316;BMP280;51920;53.952;10.292;2023-02-28T02:43:52;102703.59;;;2.64
65316;BMP280;51920;53.952;10.292;2023-02-28T02:46:42;102701.19;;;2.62
65316;BMP280;51920;53.952;10.292;2023-02-28T02:49:12;102692.38;;;2.57
65316;BMP280;51920;53.952;10.292;2023-02-28T02:51:40;102694.25;;;2.56
65316;BMP280;51920;53.952;10.292;2023-02-28T02:54:12;102681.41;;;2.43
65316;BMP280;51920;53.952;10.292;2023-02-28T02:56:43;102702.00;;;2.47
65316;BMP280;51920;53.952;10.292;2023-02-28T02:59:13;102687.00;;;2.36
65316;BMP280;51920;53.952;10.292;2023-02-28T03:01:53;102689.16;;;2.39
65316;BMP280;51920;53.952;10.292;2023-02-28T03:04:22;102698.25;;;2.48
65316;BMP280;51920;53.952;10.292;2023-02-28T03:06:50;102689.69;;;2.57
65316;BMP280;51920;53.952;10.292;2023-02-28T03:09:21;102702.00;;;2.58
65316;BMP280;51920;53.952;10.292;2023-02-28T03:11:48;102699.34;;;2.58
65316;BMP280;51920;53.952;10.292;2023-02-28T03:24:50;102700.66;;;2.40
65316;BMP280;51920;53.952;10.292;2023-02-28T03:27:51;102694.50;;;2.34
65316;BMP280;51920;53.952;10.292;2023-02-28T03:30:23;102706.84;;;2.25
65316;BMP280;51920;53.952;10.292;2023-02-28T03:33:12;102704.97;;;2.30
65316;BMP280;51920;53.952;10.292;2023-02-28T03:35:43;102707.34;;;2.17
65316;BMP280;51920;53.952;10.292;2023-02-28T03:38:19;102705.78;;;2.21
65316;BMP280;51920;53.952;10.292;2023-02-28T03:40:54;102715.66;;;2.51
65316;BMP280;51920;53.952;10.292;2023-02-28T03:43:29;102707.88;;;2.39
65316;BMP280;51920;53.952;10.292;2023-02-28T03:45:55;102711.13;;;2.31
65316;BMP280;51920;53.952;10.292;2023-02-28T03:48:32;102718.06;;;2.32
65316;BMP280;51920;53.952;10.292;2023-02-28T03:51:01;102701.22;;;2.21
65316;BMP280;51920;53.952;10.292;2023-02-28T03:53:42;102704.97;;;2.25
65316;BMP280;51920;53.952;10.292;2023-02-28T03:56:16;102712.44;;;2.18
65316;BMP280;51920;53.952;10.292;2023-02-28T04:01:21;102713.50;;;2.12
65316;BMP280;51920;53.952;10.292;2023-02-28T04:03:49;102718.88;;;2.17
65316;BMP280;51920;53.952;10.292;2023-02-28T04:06:17;102722.34;;;2.18
65316;BMP280;51920;53.952;10.292;2023-02-28T04:08:43;102708.44;;;2.16
65316;BMP280;51920;53.952;10.292;2023-02-28T04:14:01;102717.00;;;2.18
65316;BMP280;51920;53.952;10.292;2023-02-28T04:16:27;102722.56;;;2.06
65316;BMP280;51920;53.952;10.292;2023-02-28T04:18:53;102713.22;;;2.03
65316;BMP280;51920;53.952;10.292;2023-02-28T04:21:18;102712.41;;;1.98
65316;BMP280;51920;53.952;10.292;2023-02-28T04:23:47;102697.97;;;1.78
65316;BMP280;51920;53.952;10.292;2023-02-28T04:26:12;102710.00;;;1.81
65316;BMP280;51920;53.952;10.292;2023-02-28T04:28:38;102709.97;;;1.76
65316;BMP280;51920;53.952;10.292;2023-02-28T04:31:04;102697.16;;;1.72
65316;BMP280;51920;53.952;10.292;2023-02-28T04:33:31;102718.50;;;1.67
65316;BMP280;51920;53.952;10.292;2023-02-28T04:36:07;102710.44;;;1.52
65316;BMP280;51920;53.952;10.292;2023-02-28T04:38:36;102723.25;;;1.50
65316;BMP280;51920;53.952;10.292;2023-02-28T04:41:02;102716.53;;;1.42
65316;BMP280;51920;53.952;10.292;2023-02-28T04:43:28;102717.56;;;1.31
65316;BMP280;51920;53.952;10.292;2023-02-28T04:45:56;102721.28;;;1.25
65316;BMP280;51920;53.952;10.292;2023-02-28T04:48:23;102719.84;;;1.07
65316;BMP280;51920;53.952;10.292;2023-02-28T04:50:49;102719.50;;;0.93
65316;BMP280;51920;53.952;10.292;2023-02-28T04:53:14;102722.34;;;0.81
65316;BMP280;51920;53.952;10.292;2023-02-28T04:55:40;102723.34;;;0.70
65316;BMP280;51920;53.952;10.292;2023-02-28T04:58:05;102726.81;;;0.70
65316;BMP280;51920;53.952;10.292;2023-02-28T05:00:31;102720.63;;;0.65
65316;BMP280;51920;53.952;10.292;2023-02-28T05:02:56;102723.88;;;0.72
65316;BMP280;51920;53.952;10.292;2023-02-28T05:05:22;102724.69;;;0.72
65316;BMP280;51920;53.952;10.292;2023-02-28T05:07:47;102719.31;;;0.67
65316;BMP280;51920;53.952;10.292;2023-02-28T05:10:13;102721.47;;;0.70
65316;BMP280;51920;53.952;10.292;2023-02-28T05:12:38;102718.97;;;0.58
65316;BMP280;51920;53.952;10.292;2023-02-28T05:15:04;102715.16;;;0.49
65316;BMP280;51920;53.952;10.292;2023-02-28T05:17:30;102718.84;;;0.43
65316;BMP280;51920;53.952;10.292;2023-02-28T05:19:56;102707.84;;;0.34
65316;BMP280;51920;53.952;10.292;2023-02-28T05:22:22;102713.47;;;0.38
65316;BMP280;51920;53.952;10.292;2023-02-28T05:24:47;102715.31;;;0.32
65316;BMP280;51920;53.952;10.292;2023-02-28T05:27:13;102709.09;;;0.22
65316;BMP280;51920;53.952;10.292;2023-02-28T05:29:38;102698.63;;;0.15
65316;BMP280;51920;53.952;10.292;2023-02-28T05:32:11;102708.19;;;0.11
65316;BMP280;51920;53.952;10.292;2023-02-28T05:34:38;102712.22;;;0.13
65316;BMP280;51920;53.952;10.292;2023-02-28T05:37:04;102719.66;;;0.11
65316;BMP280;51920;53.952;10.292;2023-02-28T05:39:29;102719.06;;;0.04
65316;BMP280;51920;53.952;10.292;2023-02-28T05:41:55;102717.69;;;0.02
65316;BMP280;51920;53.952;10.292;2023-02-28T05:44:21;102714.72;;;-0.02
65316;BMP280;51920;53.952;10.292;2023-02-28T05:46:46;102718.69;;;-0.05
65316;BMP280;51920;53.952;10.292;2023-02-28T05:49:11;102715.41;;;-0.12
65316;BMP280;51920;53.952;10.292;2023-02-28T05:51:37;102728.69;;;-0.17
65316;BMP280;51920;53.952;10.292;2023-02-28T05:54:05;102739.09;;;-0.15
65316;BMP280;51920;53.952;10.292;2023-02-28T05:56:31;102728.84;;;-0.24
65316;BMP280;51920;53.952;10.292;2023-02-28T05:58:57;102734.97;;;-0.23
65316;BMP280;51920;53.952;10.292;2023-02-28T06:01:32;102731.97;;;-0.32
65316;BMP280;51920;53.952;10.292;2023-02-28T06:03:59;102729.66;;;-0.23
65316;BMP280;51920;53.952;10.292;2023-02-28T06:06:25;102727.19;;;-0.30
65316;BMP280;51920;53.952;10.292;2023-02-28T06:08:50;102735.66;;;-0.33
65316;BMP280;51920;53.952;10.292;2023-02-28T06:11:18;102742.63;;;-0.32
65316;BMP280;51920;53.952;10.292;2023-02-28T06:13:45;102741.31;;;-0.29
65316;BMP280;51920;53.952;10.292;2023-02-28T06:16:11;102743.56;;;-0.38
65316;BMP280;51920;53.952;10.292;2023-02-28T06:18:37;102733.69;;;-0.43
65316;BMP280;51920;53.952;10.292;2023-02-28T06:21:03;102737.63;;;-0.45
65316;BMP280;51920;53.952;10.292;2023-02-28T06:23:29;102750.47;;;-0.42
65316;BMP280;51920;53.952;10.292;2023-02-28T06:25:54;102751.50;;;-0.43
65316;BMP280;51920;53.952;10.292;2023-02-28T06:28:24;102753.13;;;-0.42
65316;BMP280;51920;53.952;10.292;2023-02-28T06:30:51;102743.88;;;-0.57
65316;BMP280;51920;53.952;10.292;2023-02-28T06:33:16;102759.47;;;-0.43
65316;BMP280;51920;53.952;10.292;2023-02-28T06:35:47;102760.25;;;-0.48
65316;BMP280;51920;53.952;10.292;2023-02-28T06:38:13;102728.50;;;-0.71
65316;BMP280;51920;53.952;10.292;2023-02-28T06:40:38;102764.25;;;-0.45
65316;BMP280;51920;53.952;10.292;2023-02-28T06:43:04;102768.22;;;-0.48
65316;BMP280;51920;53.952;10.292;2023-02-28T06:45:29;102766.84;;;-0.50
65316;BMP280;51920;53.952;10.292;2023-02-28T06:47:55;102766.06;;;-0.51
65316;BMP280;51920;53.952;10.292;2023-02-28T06:50:20;102763.06;;;-0.54
65316;BMP280;51920;53.952;10.292;2023-02-28T06:52:46;102756.75;;;-0.48
65316;BMP280;51920;53.952;10.292;2023-02-28T06:55:13;102769.66;;;-0.40
65316;BMP280;51920;53.952;10.292;2023-02-28T06:57:38;102762.22;;;-0.38
65316;BMP280;51920;53.952;10.292;2023-02-28T07:00:08;102763.94;;;-0.32
65316;BMP280;51920;53.952;10.292;2023-02-28T07:02:35;102773.03;;;-0.28
65316;BMP280;51920;53.952;10.292;2023-02-28T07:05:01;102773.78;;;-0.10
65316;BMP280;51920;53.952;10.292;2023-02-28T07:07:26;102763.50;;;-0.02
65316;BMP280;51920;53.952;10.292;2023-02-28T07:09:52;102777.88;;;0.25
65316;BMP280;51920;53.952;10.292;2023-02-28T07:12:17;102793.63;;;0.58
65316;BMP280;51920;53.952;10.292;2023-02-28T07:14:43;102782.13;;;0.80
65316;BMP280;51920;53.952;10.292;2023-02-28T07:17:09;102787.34;;;1.02
65316;BMP280;51920;53.952;10.292;2023-02-28T07:19:40;102794.50;;;1.34
65316;BMP280;51920;53.952;10.292;2023-02-28T07:22:06;102780.00;;;1.72
65316;BMP280;51920;53.952;10.292;2023-02-28T07:24:31;102763.97;;;1.93
65316;BMP280;51920;53.952;10.292;2023-02-28T07:26:57;102761.66;;;2.17
65316;BMP280;51920;53.952;10.292;2023-02-28T07:29:22;102753.09;;;2.30
65316;BMP280;51920;53.952;10.292;2023-02-28T07:31:48;102782.81;;;2.60
65316;BMP280;51920;53.952;10.292;2023-02-28T07:34:15;102782.56;;;2.56
65316;BMP280;51920;53.952;10.292;2023-02-28T07:36:41;102796.44;;;2.48
65316;BMP280;51920;53.952;10.292;2023-02-28T07:39:06;102802.03;;;2.82
65316;BMP280;51920;53.952;10.292;2023-02-28T07:41:35;102795.03;;;3.22
65316;BMP280;51920;53.952;10.292;2023-02-28T07:44:05;102814.25;;;3.50
65316;BMP280;51920;53.952;10.292;2023-02-28T07:46:30;102812.13;;;3.37
65316;BMP280;51920;53.952;10.292;2023-02-28T07:49:00;102811.44;;;2.95
65316;BMP280;51920;53.952;10.292;2023-02-28T07:51:29;102810.34;;;2.91
65316;BMP280;51920;53.952;10.292;2023-02-28T07:53:54;102809.78;;;3.20
65316;BMP280;51920;53.952;10.292;2023-02-28T07:56:19;102808.34;;;3.48
65316;BMP280;51920;53.952;10.292;2023-02-28T07:58:45;102812.66;;;3.44
65316;BMP280;51920;53.952;10.292;2023-02-28T08:01:11;102785.34;;;3.37
65316;BMP280;51920;53.952;10.292;2023-02-28T08:03:38;102789.25;;;3.60
65316;BMP280;51920;53.952;10.292;2023-02-28T08:06:05;102814.09;;;3.81
65316;BMP280;51920;53.952;10.292;2023-02-28T08:08:31;102807.91;;;3.85
65316;BMP280;51920;53.952;10.292;2023-02-28T08:11:03;102799.47;;;4.02
65316;BMP280;51920;53.952;10.292;2023-02-28T08:13:29;102790.97;;;3.90
65316;BMP280;51920;53.952;10.292;2023-02-28T08:15:56;102804.31;;;4.05
65316;BMP280;51920;53.952;10.292;2023-02-28T08:18:23;102805.47;;;3.94
65316;BMP280;51920;53.952;10.292;2023-02-28T08:20:49;102803.16;;;4.17
65316;BMP280;51920;53.952;10.292;2023-02-28T08:23:15;102803.28;;;4.65
65316;BMP280;51920;53.952;10.292;2023-02-28T08:25:40;102814.19;;;5.08
65316;BMP280;51920;53.952;10.292;2023-02-28T08:28:05;102810.00;;;5.21
65316;BMP280;51920;53.952;10.292;2023-02-28T08:30:31;102785.31;;;4.95
65316;BMP280;51920;53.952;10.292;2023-02-28T08:32:56;102798.41;;;5.25
65316;BMP280;51920;53.952;10.292;2023-02-28T08:35:22;102813.41;;;4.78
65316;BMP280;51920;53.952;10.292;2023-02-28T08:37:48;102809.28;;;5.58
65316;BMP280;51920;53.952;10.292;2023-02-28T08:40:15;102783.31;;;5.68
65316;BMP280;51920;53.952;10.292;2023-02-28T08:42:45;102807.22;;;6.07
65316;BMP280;51920;53.952;10.292;2023-02-28T08:45:11;102808.19;;;5.59
65316;BMP280;51920;53.952;10.292;2023-02-28T08:47:37;102815.69;;;6.33
65316;BMP280;51920;53.952;10.292;2023-02-28T08:50:03;102807.81;;;7.25
65316;BMP280;51920;53.952;10.292;2023-02-28T08:52:30;102817.28;;;7.36
65316;BMP280;51920;53.952;10.292;2023-02-28T08:54:55;102819.09;;;7.13
65316;BMP280;51920;53.952;10.292;2023-02-28T08:57:20;102814.13;;;6.46
65316;BMP280;51920;53.952;10.292;2023-02-28T08:59:46;102817.41;;;6.90
65316;BMP280;51920;53.952;10.292;2023-02-28T09:02:14;102827.03;;;7.60
65316;BMP280;51920;53.952;10.292;2023-02-28T09:04:40;102820.31;;;7.57
65316;BMP280;51920;53.952;10.292;2023-02-28T09:07:07;102822.47;;;7.33
65316;BMP280;51920;53.952;10.292;2023-02-28T09:09:32;102813.88;;;8.03
65316;BMP280;51920;53.952;10.292;2023-02-28T09:11:58;102839.03;;;9.24
65316;BMP280;51920;53.952;10.292;2023-02-28T09:14:24;102827.44;;;9.32
65316;BMP280;51920;53.952;10.292;2023-02-28T09:16:49;102828.28;;;8.21
65316;BMP280;51920;53.952;10.292;2023-02-28T09:19:15;102835.81;;;8.56
65316;BMP280;51920;53.952;10.292;2023-02-28T09:21:40;102823.88;;;8.57
65316;BMP280;51920;53.952;10.292;2023-02-28T09:24:06;102828.94;;;8.18
65316;BMP280;51920;53.952;10.292;2023-02-28T09:26:32;102815.22;;;7.92
65316;BMP280;51920;53.952;10.292;2023-02-28T09:28:59;102828.75;;;8.77
65316;BMP280;51920;53.952;10.292;2023-02-28T09:31:27;102836.53;;;9.71
65316;BMP280;51920;53.952;10.292;2023-02-28T09:33:55;102831.44;;;9.52
65316;BMP280;51920;53.952;10.292;2023-02-28T09:36:22;102828.72;;;9.69
65316;BMP280;51920;53.952;10.292;2023-02-28T09:38:48;102832.97;;;9.09
65316;BMP280;51920;53.952;10.292;2023-02-28T09:43:53;102833.22;;;8.90
65316;BMP280;51920;53.952;10.292;2023-02-28T09:46:35;102841.31;;;9.48
65316;BMP280;51920;53.952;10.292;2023-02-28T09:49:10;102839.25;;;9.71
65316;BMP280;51920;53.952;10.292;2023-02-28T09:54:11;102835.84;;;10.65
65316;BMP280;51920;53.952;10.292;2023-02-28T09:56:41;102843.00;;;10.13
65316;BMP280;51920;53.952;10.292;2023-02-28T10:07:13;102848.16;;;10.53
65316;BMP280;51920;53.952;10.292;2023-02-28T10:09:50;102828.66;;;10.04
65316;BMP280;51920;53.952;10.292;2023-02-28T10:12:16;102843.63;;;10.37
65316;BMP280;51920;53.952;10.292;2023-02-28T10:14:45;102823.06;;;10.27
65316;BMP280;51920;53.952;10.292;2023-02-28T10:17:16;102840.69;;;11.52
65316;BMP280;51920;53.952;10.292;2023-02-28T10:22:40;102841.22;;;10.73
65316;BMP280;51920;53.952;10.292;2023-02-28T10:27:44;102862.88;;;11.54
65316;BMP280;51920;53.952;10.292;2023-02-28T10:30:11;102843.84;;;11.12
65316;BMP280;51920;53.952;10.292;2023-02-28T10:32:38;102832.84;;;9.32
65316;BMP280;51920;53.952;10.292;2023-02-28T10:35:17;102844.88;;;10.22
65316;BMP280;51920;53.952;10.292;2023-02-28T10:37:46;102852.78;;;11.12
65316;BMP280;51920;53.952;10.292;2023-02-28T10:40:33;102854.78;;;11.24
65316;BMP280;51920;53.952;10.292;2023-02-28T10:43:05;102859.19;;;11.37
65316;BMP280;51920;53.952;10.292;2023-02-28T10:46:01;102855.47;;;11.12
65316;BMP280;51920;53.952;10.292;2023-02-28T10:48:31;102855.38;;;11.09
65316;BMP280;51920;53.952;10.292;2023-02-28T10:50:57;102853.53;;;11.01
65316;BMP280;51920;53.952;10.292;2023-02-28T10:56:14;102857.59;;;11.07
65316;BMP280;51920;53.952;10.292;2023-02-28T11:01:45;102852.72;;;11.21
65316;BMP280;51920;53.952;10.292;2023-02-28T11:07:16;102852.69;;;10.23
65316;BMP280;51920;53.952;10.292;2023-02-28T11:09:45;102838.56;;;10.00
65316;BMP280;51920;53.952;10.292;2023-02-28T11:14:52;102841.03;;;10.40
65316;BMP280;51920;53.952;10.292;2023-02-28T11:17:24;102845.56;;;10.19
65316;BMP280;51920;53.952;10.292;2023-02-28T11:19:54;102833.00;;;9.88
65316;BMP280;51920;53.952;10.292;2023-02-28T11:22:23;102832.09;;;9.49
65316;BMP280;51920;53.952;10.292;2023-02-28T11:24:53;102830.81;;;9.64
65316;BMP280;51920;53.952;10.292;2023-02-28T11:29:54;102823.19;;;9.75
65316;BMP280;51920;53.952;10.292;2023-02-28T11:32:22;102821.88;;;9.55
65316;BMP280;51920;53.952;10.292;2023-02-28T11:35:04;102828.09;;;9.72
65316;BMP280;51920;53.952;10.292;2023-02-28T11:37:39;102826.88;;;8.95
65316;BMP280;51920;53.952;10.292;2023-02-28T11:43:19;102828.25;;;9.50
65316;BMP280;51920;53.952;10.292;2023-02-28T11:48:46;102816.84;;;8.96
65316;BMP280;51920;53.952;10.292;2023-02-28T11:51:34;102810.59;;;9.26
65316;BMP280;51920;53.952;10.292;2023-02-28T11:56:47;102811.81;;;8.32
65316;BMP280;51920;53.952;10.292;2023-02-28T11:59:38;102809.34;;;8.44
65316;BMP280;51920;53.952;10.292;2023-02-28T12:13:29;102792.75;;;8.59
65316;BMP280;51920;53.952;10.292;2023-02-28T12:19:38;102790.69;;;8.02
65316;BMP280;51920;53.952;10.292;2023-02-28T12:27:46;102767.66;;;8.27
65316;BMP280;51920;53.952;10.292;2023-02-28T12:30:27;102770.53;;;8.31
65316;BMP280;51920;53.952;10.292;2023-02-28T12:32:58;102768.34;;;8.11
65316;BMP280;51920;53.952;10.292;2023-02-28T12:35:48;102766.00;;;8.18
65316;BMP280;51920;53.952;10.292;2023-02-28T12:38:19;102762.03;;;8.15
65316;BMP280;51920;53.952;10.292;2023-02-28T12:40:53;102756.50;;;8.20
65316;BMP280;51920;53.952;10.292;2023-02-28T12:43:21;102757.34;;;8.29
65316;BMP280;51920;53.952;10.292;2023-02-28T12:46:00;102761.19;;;8.37
65316;BMP280;51920;53.952;10.292;2023-02-28T12:51:08;102746.03;;;7.96
65316;BMP280;51920;53.952;10.292;2023-02-28T12:54:04;102744.88;;;7.66
65316;BMP280;51920;53.952;10.292;2023-02-28T12:59:38;102734.50;;;7.59
65316;BMP280;51920;53.952;10.292;2023-02-28T13:08:03;102722.47;;;7.43
65316;BMP280;51920;53.952;10.292;2023-02-28T13:10:48;102723.81;;;7.54
65316;BMP280;51920;53.952;10.292;2023-02-28T13:13:29;102723.81;;;7.54
65316;BMP280;51920;53.952;10.292;2023-02-28T13:18:44;102715.13;;;7.57
65316;BMP280;51920;53.952;10.292;2023-02-28T13:21:23;102718.59;;;7.49
65316;BMP280;51920;53.952;10.292;2023-02-28T13:34:37;102713.91;;;7.41
65316;BMP280;51920;53.952;10.292;2023-02-28T13:37:36;102714.31;;;7.34
65316;BMP280;51920;53.952;10.292;2023-02-28T13:47:42;102705.88;;;7.13
65316;BMP280;51920;53.952;10.292;2023-02-28T14:06:33;102703.19;;;7.50
65316;BMP280;51920;53.952;10.292;2023-02-28T14:09:02;102709.97;;;7.47
65316;BMP280;51920;53.952;10.292;2023-02-28T14:11:35;102705.22;;;7.44
65316;BMP280;51920;53.952;10.292;2023-02-28T14:14:02;102711.00;;;7.51
65316;BMP280;51920;53.952;10.292;2023-02-28T14:16:37;102707.91;;;7.44
65316;BMP280;51920;53.952;10.292;2023-02-28T14:19:15;102710.47;;;7.72
65316;BMP280;51920;53.952;10.292;2023-02-28T14:25:09;102706.28;;;7.43
65316;BMP280;51920;53.952;10.292;2023-02-28T14:27:50;102713.50;;;7.47
65316;BMP280;51920;53.952;10.292;2023-02-28T14:36:14;102710.84;;;7.56
65316;BMP280;51920;53.952;10.292;2023-02-28T14:38:51;102706.06;;;7.53
65316;BMP280;51920;53.952;10.292;2023-02-28T14:43:51;102707.19;;;7.52
65316;BMP280;51920;53.952;10.292;2023-02-28T14:46:17;102701.38;;;7.45
65316;BMP280;51920;53.952;10.292;2023-02-28T14:48:46;102699.56;;;7.32
65316;BMP280;51920;53.952;10.292;2023-02-28T14:51:12;102699.19;;;7.47
65316;BMP280;51920;53.952;10.292;2023-02-28T14:53:42;102703.50;;;7.48
65316;BMP280;51920;53.952;10.292;2023-02-28T14:56:20;102692.91;;;7.52
65316;BMP280;51920;53.952;10.292;2023-02-28T14:58:52;102692.31;;;7.41
65316;BMP280;51920;53.952;10.292;2023-02-28T15:01:20;102696.22;;;7.35
65316;BMP280;51920;53.952;10.292;2023-02-28T15:03:47;102692.31;;;7.41
65316;BMP280;51920;53.952;10.292;2023-02-28T15:06:17;102688.22;;;7.43
65316;BMP280;51920;53.952;10.292;2023-02-28T15:08:44;102692.03;;;7.42
65316;BMP280;51920;53.952;10.292;2023-02-28T15:11:18;102688.28;;;7.30
65316;BMP280;51920;53.952;10.292;2023-02-28T15:19:06;102680.81;;;7.26
65316;BMP280;51920;53.952;10.292;2023-02-28T15:21:39;102668.53;;;7.20
65316;BMP280;51920;53.952;10.292;2023-02-28T15:24:17;102673.16;;;7.06
65316;BMP280;51920;53.952;10.292;2023-02-28T15:26:53;102667.66;;;7.11
65316;BMP280;51920;53.952;10.292;2023-02-28T15:29:21;102660.41;;;6.98
65316;BMP280;51920;53.952;10.292;2023-02-28T15:32:17;102662.09;;;6.94
65316;BMP280;51920;53.952;10.292;2023-02-28T15:37:06;102654.50;;;6.96
65316;BMP280;51920;53.952;10.292;2023-02-28T15:39:49;102652.34;;;6.98
65316;BMP280;51920;53.952;10.292;2023-02-28T15:42:22;102652.00;;;6.99
65316;BMP280;51920;53.952;10.292;2023-02-28T15:44:48;102658.63;;;6.93
65316;BMP280;51920;53.952;10.292;2023-02-28T15:47:23;102651.97;;;6.91
65316;BMP280;51920;53.952;10.292;2023-02-28T15:52:34;102656.22;;;6.78
65316;BMP280;51920;53.952;10.292;2023-02-28T15:55:32;102656.22;;;6.78
65316;BMP280;51920;53.952;10.292;2023-02-28T15:58:00;102657.97;;;6.74
65316;BMP280;51920;53.952;10.292;2023-02-28T16:00:28;102658.84;;;6.69
65316;BMP280;51920;53.952;10.292;2023-02-28T16:02:53;102663.06;;;6.75
65316;BMP280;51920;53.952;10.292;2023-02-28T16:05:23;102658.84;;;6.69
65316;BMP280;51920;53.952;10.292;2023-02-28T16:07:58;102659.47;;;6.66
65316;BMP280;51920;53.952;10.292;2023-02-28T16:10:26;102664.03;;;6.65
65316;BMP280;51920;53.952;10.292;2023-02-28T16:12:56;102661.03;;;6.67
65316;BMP280;51920;53.952;10.292;2023-02-28T16:15:28;102655.06;;;6.70
65316;BMP280;51920;53.952;10.292;2023-02-28T16:17:55;102655.28;;;6.60
65316;BMP280;51920;53.952;10.292;2023-02-28T16:20:29;102656.00;;;6.52
65316;BMP280;51920;53.952;10.292;2023-02-28T16:22:55;102658.69;;;6.52
65316;BMP280;51920;53.952;10.292;2023-02-28T16:25:34;102659.78;;;6.51
65316;BMP280;51920;53.952;10.292;2023-02-28T16:28:00;102667.44;;;6.43
65316;BMP280;51920;53.952;10.292;2023-02-28T16:30:28;102664.25;;;6.41
65316;BMP280;51920;53.952;10.292;2023-02-28T16:32:57;102662.66;;;6.40
65316;BMP280;51920;53.952;10.292;2023-02-28T16:35:23;102661.06;;;6.39
65316;BMP280;51920;53.952;10.292;2023-02-28T16:37:51;102668.44;;;6.34
65316;BMP280;51920;53.952;10.292;2023-02-28T16:40:23;102667.94;;;6.18
65316;BMP280;51920;53.952;10.292;2023-02-28T16:42:52;102666.41;;;6.12
65316;BMP280;51920;53.952;10.292;2023-02-28T16:45:24;102670.59;;;6.04
65316;BMP280;51920;53.952;10.292;2023-02-28T16:47:51;102679.31;;;5.96
65316;BMP280;51920;53.952;10.292;2023-02-28T16:50:23;102679.16;;;5.92
65316;BMP280;51920;53.952;10.292;2023-02-28T16:52:49;102674.34;;;5.89
65316;BMP280;51920;53.952;10.292;2023-02-28T16:55:17;102678.72;;;5.85